createdAt,value
2022-12-17T00:01:29.092Z,21.15
2022-12-17T00:03:30.985Z,17.75
2022-12-17T00:05:32.968Z,19.15
2022-12-17T00:07:36.182Z,17.17
2022-12-17T00:09:37.972Z,16.23
2022-12-17T00:11:39.908Z,16.67
2022-12-17T00:13:41.831Z,16.33
2022-12-17T00:15:43.801Z,15.55
2022-12-17T00:17:47.082Z,17.58
2022-12-17T00:19:48.995Z,15.60
2022-12-17T00:21:51.090Z,16.25
2022-12-17T00:23:53.786Z,16.05
2022-12-17T00:25:58.490Z,15.60
2022-12-17T00:28:00.289Z,16.77
2022-12-17T00:30:02.037Z,15.50
2022-12-17T00:32:06.923Z,16.23
2022-12-17T00:34:10.111Z,15.70
2022-12-17T00:36:11.887Z,16.63
2022-12-17T00:38:15.694Z,15.75
2022-12-17T00:40:17.567Z,16.33
2022-12-17T00:42:22.467Z,15.90
2022-12-17T00:44:24.517Z,15.07
2022-12-17T00:46:26.331Z,15.60
2022-12-17T00:48:28.052Z,15.90
2022-12-17T00:50:31.676Z,16.67
2022-12-17T00:52:33.456Z,15.68
2022-12-17T00:54:35.172Z,18.17
2022-12-17T00:56:36.957Z,17.45
2022-12-17T00:58:38.882Z,16.98
2022-12-17T01:00:40.644Z,17.23
2022-12-17T01:02:42.632Z,17.88
2022-12-17T01:04:44.592Z,16.20
2022-12-17T01:06:47.943Z,15.48
2022-12-17T01:08:49.769Z,16.55
2022-12-17T01:10:51.695Z,17.55
2022-12-17T01:12:55.317Z,17.88
2022-12-17T01:14:58.025Z,17.55
2022-12-17T01:16:59.822Z,19.63
2022-12-17T01:19:01.917Z,18.60
2022-12-17T01:21:03.896Z,18.75
2022-12-17T01:23:08.977Z,21.88
2022-12-17T01:25:10.729Z,20.05
2022-12-17T01:27:12.519Z,18.25
2022-12-17T01:29:17.154Z,18.27
2022-12-17T01:31:19.139Z,18.25
2022-12-17T01:33:21.333Z,19.92
2022-12-17T01:35:23.599Z,16.50
2022-12-17T01:37:25.329Z,17.95
2022-12-17T01:39:28.644Z,19.23
2022-12-17T01:41:30.591Z,17.40
2022-12-17T01:43:37.099Z,18.70
2022-12-17T01:45:43.559Z,18.13
2022-12-17T01:47:49.869Z,16.98
2022-12-17T01:49:51.880Z,18.42
2022-12-17T01:51:54.086Z,16.60
2022-12-17T01:53:56.423Z,17.00
2022-12-17T01:56:09.725Z,17.52
2022-12-17T01:58:11.564Z,17.48
2022-12-17T02:00:16.057Z,18.70
2022-12-17T02:02:17.902Z,18.70
2022-12-17T02:04:20.377Z,18.10
2022-12-17T02:06:26.639Z,17.27
2022-12-17T02:08:37.311Z,17.65
2022-12-17T02:10:46.230Z,18.60
2022-12-17T02:12:52.873Z,18.50
2022-12-17T02:15:01.304Z,19.77
2022-12-17T02:17:08.651Z,19.35
2022-12-17T02:19:26.431Z,18.20
2022-12-17T02:21:30.969Z,16.38
2022-12-17T02:23:44.626Z,17.05
2022-12-17T02:25:52.125Z,17.65
2022-12-17T02:27:55.648Z,16.13
2022-12-17T02:30:02.600Z,15.63
2022-12-17T02:32:07.402Z,16.58
2022-12-17T02:34:09.126Z,17.98
2022-12-17T02:36:10.999Z,17.60
2022-12-17T02:38:20.875Z,18.95
2022-12-17T02:40:24.905Z,16.80
2022-12-17T02:42:28.853Z,17.77
2022-12-17T02:44:35.021Z,17.55
2022-12-17T02:46:38.461Z,17.17
2022-12-17T02:48:40.802Z,17.05
2022-12-17T02:50:42.739Z,16.52
2022-12-17T02:52:47.925Z,18.13
2022-12-17T02:54:49.677Z,16.75
2022-12-17T02:56:51.588Z,17.50
2022-12-17T02:58:53.329Z,16.08
2022-12-17T03:00:56.903Z,16.25
2022-12-17T03:02:58.680Z,16.85
2022-12-17T03:05:21.054Z,18.13
2022-12-17T03:07:22.543Z,16.05
2022-12-17T03:09:24.469Z,17.88
2022-12-17T03:11:28.498Z,16.85
2022-12-17T03:13:30.660Z,17.17
2022-12-17T03:15:32.505Z,16.20
2022-12-17T03:17:35.856Z,17.60
2022-12-17T03:19:40.560Z,17.95
2022-12-17T03:21:42.898Z,17.58
2022-12-17T03:23:44.743Z,16.75
2022-12-17T03:25:48.951Z,16.73
2022-12-17T03:27:51.086Z,17.35
2022-12-17T03:29:52.817Z,16.27
2022-12-17T03:31:54.644Z,18.52
2022-12-17T03:33:57.807Z,16.55
2022-12-17T03:35:59.561Z,16.83
2022-12-17T03:38:01.339Z,17.27
2022-12-17T03:40:03.313Z,15.95
2022-12-17T03:42:05.170Z,18.00
2022-12-17T03:44:07.060Z,18.25
2022-12-17T03:46:08.881Z,19.13
2022-12-17T03:48:12.480Z,17.73
2022-12-17T03:50:15.643Z,21.25
2022-12-17T03:52:17.552Z,19.27
2022-12-17T03:54:19.337Z,20.27
2022-12-17T03:56:21.403Z,16.48
2022-12-17T03:58:23.403Z,18.80
2022-12-17T04:00:25.167Z,17.65
2022-12-17T04:02:27.234Z,16.83
2022-12-17T04:04:29.229Z,18.50
2022-12-17T04:06:32.438Z,18.90
2022-12-17T04:08:34.378Z,21.50
2022-12-17T04:10:36.142Z,19.80
2022-12-17T04:12:37.976Z,20.08
2022-12-17T04:14:39.903Z,22.55
2022-12-17T04:16:41.767Z,18.75
2022-12-17T04:18:43.633Z,17.70
2022-12-17T04:20:45.393Z,16.83
2022-12-17T04:22:48.639Z,18.35
2022-12-17T04:24:50.368Z,18.83
2022-12-17T04:26:52.116Z,17.88
2022-12-17T04:28:54.152Z,15.52
2022-12-17T04:30:55.908Z,16.13
2022-12-17T04:32:57.863Z,16.38
2022-12-17T04:34:59.596Z,16.30
2022-12-17T04:37:01.280Z,15.75
2022-12-17T04:39:04.580Z,17.25
2022-12-17T04:41:06.567Z,15.50
2022-12-17T04:43:10.304Z,15.30
2022-12-17T04:45:12.072Z,16.50
2022-12-17T04:47:13.855Z,14.95
2022-12-17T04:49:15.626Z,16.45
2022-12-17T04:51:17.381Z,15.13
2022-12-17T04:53:19.430Z,16.58
2022-12-17T04:55:22.704Z,17.25
2022-12-17T04:57:24.415Z,16.20
2022-12-17T04:59:26.072Z,16.05
2022-12-17T05:01:27.875Z,16.20
2022-12-17T05:03:29.897Z,16.65
2022-12-17T05:05:31.967Z,16.30
2022-12-17T05:07:36.611Z,15.88
2022-12-17T05:09:38.342Z,15.35
2022-12-17T05:11:41.711Z,15.57
2022-12-17T05:13:43.551Z,15.77
2022-12-17T05:15:51.353Z,17.65
2022-12-17T05:17:55.182Z,17.50
2022-12-17T05:19:59.428Z,16.42
2022-12-17T05:22:01.229Z,18.13
2022-12-17T05:24:03.154Z,17.30
2022-12-17T05:26:06.211Z,18.73
2022-12-17T05:28:11.990Z,17.50
2022-12-17T05:30:14.047Z,15.90
2022-12-17T05:32:15.749Z,16.17
2022-12-17T05:34:17.631Z,17.15
2022-12-17T05:36:20.916Z,17.02
2022-12-17T05:38:22.696Z,18.48
2022-12-17T05:40:24.475Z,17.58
2022-12-17T05:42:26.207Z,16.48
2022-12-17T05:44:29.345Z,16.77
2022-12-17T05:46:31.157Z,15.52
2022-12-17T05:48:33.883Z,18.75
2022-12-17T05:50:35.706Z,18.50
2022-12-17T05:52:37.389Z,17.80
2022-12-17T05:54:39.187Z,17.30
2022-12-17T05:56:40.870Z,15.82
2022-12-17T05:58:42.588Z,16.42
2022-12-17T06:00:45.735Z,16.15
2022-12-17T06:02:47.518Z,15.73
2022-12-17T06:04:49.692Z,15.40
2022-12-17T06:06:51.326Z,17.60
2022-12-17T06:08:54.291Z,16.40
2022-12-17T06:10:59.081Z,16.05
2022-12-17T06:13:00.808Z,15.20
2022-12-17T06:15:02.803Z,15.60
2022-12-17T06:17:06.232Z,14.57
2022-12-17T06:19:07.985Z,16.80
2022-12-17T06:21:09.691Z,15.05
2022-12-17T06:23:11.343Z,14.57
2022-12-17T06:25:13.070Z,16.52
2022-12-17T06:27:15.240Z,16.08
2022-12-17T06:29:17.005Z,15.23
2022-12-17T06:31:18.815Z,17.63
2022-12-17T06:33:22.876Z,16.08
2022-12-17T06:35:24.627Z,16.75
2022-12-17T06:37:26.809Z,16.30
2022-12-17T06:39:29.440Z,19.30
2022-12-17T06:41:31.095Z,16.33
2022-12-17T06:43:33.613Z,17.95
2022-12-17T06:45:35.744Z,18.92
2022-12-17T06:47:37.343Z,18.42
2022-12-17T06:49:41.074Z,15.68
2022-12-17T06:51:42.789Z,18.08
2022-12-17T06:53:44.522Z,17.40
2022-12-17T06:55:46.582Z,20.00
2022-12-17T06:57:50.454Z,18.42
2022-12-17T06:59:52.454Z,17.45
2022-12-17T07:01:55.001Z,19.63
2022-12-17T07:03:56.744Z,15.70
2022-12-17T07:06:01.570Z,18.30
2022-12-17T07:08:03.646Z,17.52
2022-12-17T07:10:13.628Z,17.70
2022-12-17T07:12:16.158Z,20.55
2022-12-17T07:14:18.209Z,23.42
2022-12-17T07:16:19.989Z,22.30
2022-12-17T07:18:22.061Z,23.35
2022-12-17T07:20:23.981Z,25.75
2022-12-17T07:22:27.501Z,27.63
2022-12-17T07:24:31.584Z,26.88
2022-12-17T07:26:33.574Z,25.05
2022-12-17T07:28:35.463Z,25.02
2022-12-17T07:30:37.212Z,24.45
2022-12-17T07:32:38.966Z,27.52
2022-12-17T07:34:40.671Z,23.92
2022-12-17T07:36:42.568Z,24.10
2022-12-17T07:38:46.117Z,22.00
2022-12-17T07:40:47.745Z,24.83
2022-12-17T07:42:49.753Z,23.02
2022-12-17T07:44:51.501Z,23.63
2022-12-17T07:46:55.527Z,23.83
2022-12-17T07:48:57.359Z,22.20
2022-12-17T07:51:01.699Z,25.23
2022-12-17T07:53:06.400Z,25.95
2022-12-17T07:55:15.392Z,27.90
2022-12-17T07:57:19.900Z,25.02
2022-12-17T07:59:21.904Z,26.75
2022-12-17T08:01:23.771Z,36.30
2022-12-17T08:03:27.580Z,28.23
2022-12-17T08:05:29.436Z,28.65
2022-12-17T08:07:31.277Z,27.52
2022-12-17T08:09:33.095Z,29.40
2022-12-17T08:11:38.901Z,26.92
2022-12-17T08:13:40.869Z,26.45
2022-12-17T08:15:58.883Z,23.50
2022-12-17T08:18:02.235Z,23.13
2022-12-17T08:20:05.557Z,22.58
2022-12-17T08:22:07.532Z,24.60
2022-12-17T08:24:09.473Z,26.25
2022-12-17T08:26:11.270Z,24.02
2022-12-17T08:28:41.291Z,22.63
2022-12-17T08:30:36.687Z,26.35
2022-12-17T08:32:38.938Z,23.60
2022-12-17T08:34:40.644Z,21.90
2022-12-17T08:36:42.468Z,22.58
2022-12-17T08:38:45.570Z,21.60
2022-12-17T08:40:47.435Z,22.77
2022-12-17T08:42:55.782Z,20.88
2022-12-17T08:44:59.281Z,24.15
2022-12-17T08:47:03.462Z,23.98
2022-12-17T08:49:05.397Z,22.35
2022-12-17T08:51:07.201Z,19.95
2022-12-17T08:53:09.031Z,21.20
2022-12-17T08:55:10.751Z,21.23
2022-12-17T08:57:12.550Z,22.15
2022-12-17T08:59:14.321Z,25.75
2022-12-17T09:01:18.049Z,23.20
2022-12-17T09:03:20.082Z,19.90
2022-12-17T09:05:21.983Z,21.95
2022-12-17T09:07:34.747Z,23.27
2022-12-17T09:09:36.404Z,21.23
2022-12-17T09:11:38.158Z,21.08
2022-12-17T09:13:40.073Z,23.27
2022-12-17T09:15:41.822Z,23.10
2022-12-17T09:17:45.097Z,21.33
2022-12-17T09:19:46.871Z,21.55
2022-12-17T09:21:48.584Z,22.98
2022-12-17T09:23:50.290Z,24.20
2022-12-17T09:25:58.212Z,22.75
2022-12-17T09:28:03.360Z,23.27
2022-12-17T09:30:06.271Z,23.90
2022-12-17T09:32:08.200Z,26.95
2022-12-17T09:34:11.853Z,24.63
2022-12-17T09:36:15.314Z,24.92
2022-12-17T09:38:17.100Z,25.23
2022-12-17T09:40:22.947Z,23.80
2022-12-17T09:42:30.388Z,24.88
2022-12-17T09:44:41.178Z,24.77
2022-12-17T09:46:51.048Z,24.67
2022-12-17T09:49:00.745Z,23.65
2022-12-17T09:51:04.661Z,26.95
2022-12-17T09:53:20.490Z,23.80
2022-12-17T09:55:27.274Z,24.27
2022-12-17T09:57:33.644Z,26.13
2022-12-17T09:59:43.677Z,23.17
2022-12-17T10:01:45.770Z,22.75
2022-12-17T10:03:49.469Z,21.42
2022-12-17T10:05:51.290Z,23.58
2022-12-17T10:07:55.143Z,23.15
2022-12-17T10:10:02.116Z,23.23
2022-12-17T10:12:13.481Z,24.88
2022-12-17T10:14:18.166Z,23.17
2022-12-17T10:16:27.489Z,23.77
2022-12-17T10:18:31.726Z,22.73
2022-12-17T10:20:38.459Z,26.65
2022-12-17T10:22:44.537Z,26.20
2022-12-17T10:24:49.931Z,25.10
2022-12-17T10:26:51.713Z,29.10
2022-12-17T10:29:02.783Z,26.75
2022-12-17T10:31:09.575Z,24.13
2022-12-17T10:33:18.405Z,27.70
2022-12-17T10:35:21.685Z,25.52
2022-12-17T10:37:27.707Z,25.33
2022-12-17T10:39:30.988Z,25.60
2022-12-17T10:41:37.491Z,24.45
2022-12-17T10:43:40.606Z,26.42
2022-12-17T10:45:54.839Z,25.20
2022-12-17T10:47:57.107Z,24.65
2022-12-17T10:50:00.609Z,24.55
2022-12-17T10:52:05.892Z,25.08
2022-12-17T10:54:19.938Z,25.20
2022-12-17T10:56:29.183Z,25.73
2022-12-17T10:58:33.238Z,26.20
2022-12-17T11:00:37.766Z,26.98
2022-12-17T11:02:39.808Z,25.58
2022-12-17T11:04:51.393Z,26.88
2022-12-17T11:06:56.148Z,27.65
2022-12-17T11:09:02.327Z,28.92
2022-12-17T11:11:12.688Z,29.55
2022-12-17T11:13:30.265Z,30.52
2022-12-17T11:15:38.269Z,30.58
2022-12-17T11:17:42.173Z,32.75
2022-12-17T11:19:49.275Z,31.15
2022-12-17T11:21:54.430Z,31.98
2022-12-17T11:23:59.499Z,32.78
2022-12-17T11:26:06.163Z,33.22
2022-12-17T11:28:17.789Z,32.47
2022-12-17T11:30:19.752Z,36.22
2022-12-17T11:32:55.305Z,33.60
2022-12-17T11:35:07.603Z,34.45
2022-12-17T11:37:17.684Z,33.75
2022-12-17T11:39:39.798Z,35.70
2022-12-17T11:41:54.685Z,34.28
2022-12-17T11:44:04.070Z,40.88
2022-12-17T11:46:18.074Z,37.85
2022-12-17T11:48:29.079Z,35.15
2022-12-17T11:50:41.008Z,39.40
2022-12-17T11:52:50.289Z,36.47
2022-12-17T11:54:59.311Z,60.30
2022-12-17T11:57:08.360Z,35.60
2022-12-17T11:59:23.426Z,32.80
2022-12-17T12:01:33.324Z,32.92
2022-12-17T12:03:48.756Z,30.65
2022-12-17T12:05:58.959Z,29.77
2022-12-17T12:08:10.839Z,33.35
2022-12-17T12:10:20.100Z,31.73
2022-12-17T12:12:34.720Z,33.50
2022-12-17T12:14:48.264Z,34.83
2022-12-17T12:16:56.112Z,33.92
2022-12-17T12:19:11.288Z,35.33
2022-12-17T12:21:25.573Z,28.20
2022-12-17T12:23:38.815Z,30.42
2022-12-17T12:25:52.586Z,35.88
2022-12-17T12:28:06.472Z,34.55
2022-12-17T12:30:15.492Z,35.90
2022-12-17T12:32:26.676Z,39.55
2022-12-17T12:34:33.781Z,39.05
2022-12-17T12:36:38.314Z,33.97
2022-12-17T12:38:46.652Z,37.30
2022-12-17T12:41:03.159Z,36.95
2022-12-17T12:43:21.492Z,34.35
2022-12-17T12:45:37.577Z,34.67
2022-12-17T12:47:48.138Z,33.72
2022-12-17T12:49:59.030Z,32.55
2022-12-17T12:52:01.235Z,32.60
2022-12-17T12:54:22.768Z,33.45
2022-12-17T12:56:56.033Z,28.70
2022-12-17T12:58:58.139Z,29.45
2022-12-17T13:01:02.262Z,28.58
2022-12-17T13:03:21.448Z,31.15
2022-12-17T13:05:32.645Z,35.97
2022-12-17T13:07:34.382Z,27.88
2022-12-17T13:09:48.407Z,29.42
2022-12-17T13:11:55.602Z,26.90
2022-12-17T13:14:06.457Z,29.45
2022-12-17T13:16:33.191Z,28.08
2022-12-17T13:18:37.887Z,33.22
2022-12-17T13:20:41.927Z,26.20
2022-12-17T13:22:50.484Z,31.33
2022-12-17T13:25:09.340Z,30.42
2022-12-17T13:27:27.900Z,29.42
2022-12-17T13:29:34.717Z,29.30
2022-12-17T13:31:48.405Z,38.17
2022-12-17T13:33:58.983Z,32.80
2022-12-17T13:36:13.432Z,30.92
2022-12-17T13:38:23.515Z,28.17
2022-12-17T13:40:37.497Z,32.97
2022-12-17T13:42:39.924Z,31.13
2022-12-17T13:44:46.468Z,28.05
2022-12-17T13:46:54.769Z,32.30
2022-12-17T13:48:58.725Z,25.88
2022-12-17T13:51:05.732Z,26.42
2022-12-17T13:53:11.521Z,26.10
2022-12-17T13:55:21.736Z,28.50
2022-12-17T13:57:26.198Z,27.25
2022-12-17T13:59:30.908Z,26.70
2022-12-17T14:01:33.154Z,28.10
2022-12-17T14:04:05.815Z,27.23
2022-12-17T14:05:59.903Z,28.85
2022-12-17T14:08:05.130Z,26.55
2022-12-17T14:10:15.160Z,28.48
2022-12-17T14:12:19.552Z,26.70
2022-12-17T14:14:31.973Z,27.75
2022-12-17T14:16:33.817Z,31.70
2022-12-17T14:18:40.013Z,29.08
2022-12-17T14:20:42.284Z,28.35
2022-12-17T14:22:51.282Z,30.88
2022-12-17T14:24:55.080Z,28.80
2022-12-17T14:26:59.199Z,28.38
2022-12-17T14:29:00.959Z,27.35
2022-12-17T14:33:31.171Z,30.25
2022-12-17T14:35:36.298Z,30.05
2022-12-17T14:37:38.020Z,29.98
2022-12-17T14:39:45.512Z,27.45
2022-12-17T14:41:49.418Z,26.63
2022-12-17T14:43:56.457Z,27.98
2022-12-17T14:46:01.427Z,31.40
2022-12-17T14:48:03.687Z,30.90
2022-12-17T14:50:07.971Z,26.48
2022-12-17T14:52:15.340Z,29.65
2022-12-17T14:54:21.635Z,26.20
2022-12-17T14:56:24.024Z,25.83
2022-12-17T14:58:27.991Z,48.17
2022-12-17T15:00:29.901Z,29.35
2022-12-17T15:02:32.217Z,27.40
2022-12-17T15:04:36.831Z,29.60
2022-12-17T15:06:38.537Z,31.45
2022-12-17T15:08:42.335Z,30.60
2022-12-17T15:10:44.278Z,35.70
2022-12-17T15:12:46.097Z,33.40
2022-12-17T15:14:49.520Z,28.90
2022-12-17T15:16:51.348Z,26.98
2022-12-17T15:18:53.192Z,31.13
2022-12-17T15:20:55.211Z,29.33
2022-12-17T15:22:56.958Z,28.65
2022-12-17T15:24:58.785Z,28.58
2022-12-17T15:27:00.574Z,30.05
2022-12-17T15:29:02.314Z,31.08
2022-12-17T15:31:09.544Z,28.50
2022-12-17T15:33:11.659Z,31.05
2022-12-17T15:35:14.440Z,27.70
2022-12-17T15:37:21.071Z,30.63
2022-12-17T15:39:25.830Z,30.73
2022-12-17T15:41:27.682Z,33.33
2022-12-17T15:43:34.513Z,33.10
2022-12-17T15:45:37.065Z,35.42
2022-12-17T15:47:40.560Z,30.50
2022-12-17T15:49:42.508Z,38.08
2022-12-17T15:51:44.497Z,32.70
2022-12-17T15:53:46.323Z,31.40
2022-12-17T15:55:48.177Z,29.35
2022-12-17T15:57:50.049Z,32.80
2022-12-17T15:59:52.178Z,32.72
2022-12-17T16:01:54.022Z,32.70
2022-12-17T16:03:58.108Z,33.17
2022-12-17T16:06:01.643Z,33.33
2022-12-17T16:08:03.439Z,35.05
2022-12-17T16:10:06.392Z,32.88
2022-12-17T16:12:08.199Z,29.67
2022-12-17T16:14:10.477Z,30.83
2022-12-17T16:16:12.282Z,33.25
2022-12-17T16:18:14.091Z,30.50
2022-12-17T16:20:17.391Z,28.48
2022-12-17T16:22:19.166Z,32.53
2022-12-17T16:24:21.029Z,31.00
2022-12-17T16:26:22.990Z,30.92
2022-12-17T16:28:25.019Z,31.02
2022-12-17T16:30:27.121Z,38.15
2022-12-17T16:32:34.565Z,36.85
2022-12-17T16:34:38.060Z,32.65
2022-12-17T16:36:42.083Z,33.97
2022-12-17T16:38:45.143Z,34.03
2022-12-17T16:40:47.207Z,36.60
2022-12-17T16:42:50.342Z,32.88
2022-12-17T16:44:52.043Z,35.67
2022-12-17T16:46:53.919Z,35.08
2022-12-17T16:48:57.881Z,32.47
2022-12-17T16:50:59.790Z,32.05
2022-12-17T16:53:03.697Z,32.88
2022-12-17T16:55:06.213Z,34.03
2022-12-17T16:57:08.273Z,31.50
2022-12-17T16:59:12.349Z,33.08
2022-12-17T17:01:18.557Z,37.30
2022-12-17T17:03:20.727Z,32.88
2022-12-17T17:05:22.769Z,32.88
2022-12-17T17:07:24.555Z,30.95
2022-12-17T17:09:29.687Z,32.78
2022-12-17T17:11:31.447Z,33.60
2022-12-17T17:13:33.679Z,35.05
2022-12-17T17:15:35.431Z,38.20
2022-12-17T17:17:53.778Z,33.17
2022-12-17T17:19:57.973Z,33.15
2022-12-17T17:22:00.088Z,31.40
2022-12-17T17:24:03.447Z,33.63
2022-12-17T17:26:07.700Z,34.80
2022-12-17T17:28:12.334Z,32.95
2022-12-17T17:30:14.578Z,32.72
2022-12-17T17:32:16.408Z,29.45
2022-12-17T17:34:18.300Z,31.33
2022-12-17T17:36:22.877Z,30.48
2022-12-17T17:38:24.747Z,32.17
2022-12-17T17:40:26.486Z,32.60
2022-12-17T17:42:29.860Z,32.13
2022-12-17T17:44:31.944Z,37.67
2022-12-17T17:46:35.278Z,31.35
2022-12-17T17:48:38.197Z,30.15
2022-12-17T17:50:40.575Z,31.40
2022-12-17T17:52:42.437Z,33.17
2022-12-17T17:54:44.251Z,29.33
2022-12-17T17:56:46.283Z,30.45
2022-12-17T17:58:52.165Z,34.63
2022-12-17T18:00:54.034Z,31.13
2022-12-17T18:02:56.264Z,39.58
2022-12-17T18:05:01.410Z,33.70
2022-12-17T18:09:25.444Z,34.20
2022-12-17T18:11:29.935Z,33.30
2022-12-17T18:13:33.531Z,35.72
2022-12-17T18:15:36.856Z,34.20
2022-12-17T18:17:38.913Z,31.52
2022-12-17T18:19:40.747Z,32.50
2022-12-17T18:21:44.600Z,31.88
2022-12-17T18:23:47.557Z,30.75
2022-12-17T18:25:49.353Z,30.33
2022-12-17T18:27:52.371Z,33.03
2022-12-17T18:29:54.428Z,31.20
2022-12-17T18:32:02.546Z,30.23
2022-12-17T18:34:05.452Z,30.80
2022-12-17T18:36:12.356Z,33.83
2022-12-17T18:38:14.002Z,34.60
2022-12-17T18:40:15.812Z,35.42
2022-12-17T18:42:17.573Z,37.40
2022-12-17T18:44:20.683Z,34.20
2022-12-17T18:46:23.567Z,36.58
2022-12-17T18:48:26.949Z,34.42
2022-12-17T18:50:28.819Z,35.50
2022-12-17T18:52:30.675Z,32.50
2022-12-17T18:54:32.799Z,31.02
2022-12-17T18:57:00.072Z,30.98
2022-12-17T18:58:57.924Z,31.85
2022-12-17T19:01:00.098Z,43.45
2022-12-17T19:03:02.319Z,48.30
2022-12-17T19:05:06.318Z,41.13
2022-12-17T19:07:08.089Z,39.08
2022-12-17T19:09:17.345Z,38.42
2022-12-17T19:11:20.663Z,32.33
2022-12-17T19:13:23.497Z,45.70
2022-12-17T19:15:28.309Z,39.13
2022-12-17T19:17:30.401Z,35.60
2022-12-17T19:19:35.123Z,34.60
2022-12-17T19:21:38.582Z,31.67
2022-12-17T19:23:40.819Z,30.27
2022-12-17T19:25:42.590Z,31.23
2022-12-17T19:27:44.455Z,30.42
2022-12-17T19:29:49.370Z,31.02
2022-12-17T19:31:52.111Z,34.63
2022-12-17T19:33:55.146Z,32.97
2022-12-17T19:36:01.836Z,30.67
2022-12-17T19:38:05.286Z,36.13
2022-12-17T19:40:08.371Z,32.10
2022-12-17T19:42:10.432Z,33.00
2022-12-17T19:44:14.119Z,34.75
2022-12-17T19:46:18.487Z,32.22
2022-12-17T19:48:20.355Z,33.90
2022-12-17T19:50:22.154Z,34.22
2022-12-17T19:52:26.563Z,32.33
2022-12-17T19:54:29.899Z,36.78
2022-12-17T19:56:33.295Z,35.05
2022-12-17T19:58:35.671Z,34.45
2022-12-17T20:00:37.641Z,37.58
2022-12-17T20:02:40.479Z,37.55
2022-12-17T20:04:42.281Z,37.88
2022-12-17T20:06:45.559Z,35.67
2022-12-17T20:08:48.593Z,35.28
2022-12-17T20:10:51.818Z,31.80
2022-12-17T20:12:53.679Z,30.40
2022-12-17T20:14:55.352Z,32.10
2022-12-17T20:16:59.088Z,32.15
2022-12-17T20:19:02.430Z,31.15
2022-12-17T20:21:06.258Z,31.98
2022-12-17T20:23:08.025Z,29.92
2022-12-17T20:25:10.129Z,33.05
2022-12-17T20:27:13.294Z,31.95
2022-12-17T20:29:18.013Z,34.22
2022-12-17T20:31:20.259Z,30.63
2022-12-17T20:33:22.148Z,32.35
2022-12-17T20:35:24.016Z,28.35
2022-12-17T20:37:25.822Z,29.50
2022-12-17T20:39:28.420Z,34.00
2022-12-17T20:41:31.255Z,30.70
2022-12-17T20:43:34.776Z,32.08
2022-12-17T20:45:37.078Z,37.55
2022-12-17T20:47:38.851Z,34.85
2022-12-17T20:49:40.693Z,32.10
2022-12-17T20:51:42.636Z,46.92
2022-12-17T20:53:44.929Z,33.72
2022-12-17T20:55:47.025Z,34.70
2022-12-17T20:57:48.744Z,33.00
2022-12-17T20:59:55.435Z,36.38
2022-12-17T21:01:57.327Z,32.53
2022-12-17T21:03:59.881Z,47.83
2022-12-17T21:06:10.168Z,36.38
2022-12-17T21:08:12.098Z,31.45
2022-12-17T21:10:13.905Z,32.05
2022-12-17T21:12:15.797Z,53.95
2022-12-17T21:14:19.342Z,31.58
2022-12-17T21:16:25.895Z,30.52
2022-12-17T21:18:29.483Z,34.10
2022-12-17T21:20:31.518Z,32.63
2022-12-17T21:22:33.634Z,33.40
2022-12-17T21:24:35.506Z,30.50
2022-12-17T21:26:39.290Z,32.25
2022-12-17T21:28:43.271Z,30.58
2022-12-17T21:30:45.711Z,31.77
2022-12-17T21:32:49.260Z,32.75
2022-12-17T21:34:51.409Z,29.67
2022-12-17T21:36:54.749Z,31.08
2022-12-17T21:38:57.868Z,41.00
2022-12-17T21:41:05.257Z,99.90
2022-12-17T21:43:07.505Z,37.17
2022-12-17T21:45:09.978Z,34.38
2022-12-17T21:47:11.987Z,33.58
2022-12-17T21:49:15.595Z,30.60
2022-12-17T21:51:18.086Z,32.35
2022-12-17T21:53:20.848Z,35.38
2022-12-17T21:55:22.802Z,33.17
2022-12-17T21:57:25.273Z,30.40
2022-12-17T21:59:27.297Z,33.47
2022-12-17T22:01:33.518Z,32.47
2022-12-17T22:03:35.476Z,30.77
2022-12-17T22:05:41.696Z,33.45
2022-12-17T22:07:46.419Z,32.17
2022-12-17T22:10:10.695Z,35.50
2022-12-17T22:12:11.606Z,34.00
2022-12-17T22:14:20.683Z,31.75
2022-12-17T22:16:23.332Z,34.13
2022-12-17T22:18:25.177Z,31.33
2022-12-17T22:20:27.134Z,34.25
2022-12-17T22:22:30.653Z,32.95
2022-12-17T22:24:36.252Z,31.70
2022-12-17T22:26:38.792Z,31.77
2022-12-17T22:28:40.977Z,30.88
2022-12-17T22:30:43.028Z,32.15
2022-12-17T22:32:45.421Z,30.85
2022-12-17T22:35:24.299Z,30.08
2022-12-17T22:40:25.809Z,29.08
2022-12-17T22:43:58.299Z,30.88
2022-12-17T22:44:45.731Z,27.50
2022-12-17T22:44:46.138Z,31.65
2022-12-17T22:46:39.493Z,30.50
2022-12-17T22:48:41.353Z,31.17
2022-12-17T22:50:47.146Z,30.80
2022-12-17T22:53:05.695Z,32.38
2022-12-17T22:55:14.788Z,29.95
2022-12-17T22:57:36.775Z,29.65
2022-12-17T22:59:38.995Z,29.02
2022-12-17T23:01:41.994Z,30.70
2022-12-17T23:03:44.691Z,31.40
2022-12-17T23:05:46.750Z,30.80
2022-12-17T23:07:51.136Z,33.38
2022-12-17T23:09:52.952Z,30.13
2022-12-17T23:11:59.292Z,29.20
2022-12-17T23:14:07.687Z,30.00
2022-12-17T23:16:11.317Z,31.08
2022-12-17T23:18:13.166Z,28.85
2022-12-17T23:20:16.087Z,29.05
2022-12-17T23:22:22.232Z,29.75
2022-12-17T23:24:24.353Z,31.10
2022-12-17T23:26:28.357Z,27.80
2022-12-17T23:28:32.070Z,27.33
2022-12-17T23:30:35.958Z,29.17
2022-12-17T23:32:38.195Z,29.77
2022-12-17T23:34:40.195Z,28.38
2022-12-17T23:36:42.385Z,27.50
2022-12-17T23:38:44.914Z,30.05
2022-12-17T23:40:46.723Z,29.27
2022-12-17T23:42:48.565Z,29.63
2022-12-17T23:44:52.100Z,30.23
2022-12-17T23:46:53.848Z,29.00
2022-12-17T23:48:56.327Z,36.13
2022-12-17T23:50:59.018Z,32.33
2022-12-17T23:53:00.984Z,32.83
2022-12-17T23:55:04.275Z,30.15
2022-12-17T23:57:06.303Z,28.90
2022-12-17T23:59:09.508Z,29.05
